sensor_id;sensor_type;location;lat;lon;timestamp;P1;durP1;ratioP1;P2;durP2;ratioP2
42246;SDS011;27913;42.722;23.268;2023-02-22T00:00:35;7.43;;;2.17;;
42246;SDS011;27913;42.722;23.268;2023-02-22T00:03:18;10.15;;;2.63;;
42246;SDS011;27913;42.722;23.268;2023-02-22T00:05:51;7.07;;;2.55;;
42246;SDS011;27913;42.722;23.268;2023-02-22T00:08:20;7.82;;;2.55;;
42246;SDS011;27913;42.722;23.268;2023-02-22T00:10:48;5.80;;;2.35;;
42246;SDS011;27913;42.722;23.268;2023-02-22T00:13:17;7.25;;;1.95;;
42246;SDS011;27913;42.722;23.268;2023-02-22T00:15:46;5.97;;;1.85;;
42246;SDS011;27913;42.722;23.268;2023-02-22T00:18:12;6.25;;;1.98;;
42246;SDS011;27913;42.722;23.268;2023-02-22T00:20:40;5.55;;;1.95;;
42246;SDS011;27913;42.722;23.268;2023-02-22T00:23:06;4.10;;;1.50;;
42246;SDS011;27913;42.722;23.268;2023-02-22T00:25:34;5.20;;;1.73;;
42246;SDS011;27913;42.722;23.268;2023-02-22T00:28:00;4.40;;;1.70;;
42246;SDS011;27913;42.722;23.268;2023-02-22T00:30:27;5.65;;;1.80;;
42246;SDS011;27913;42.722;23.268;2023-02-22T00:32:55;6.25;;;2.15;;
42246;SDS011;27913;42.722;23.268;2023-02-22T00:35:24;7.10;;;2.00;;
42246;SDS011;27913;42.722;23.268;2023-02-22T00:37:52;5.38;;;1.95;;
42246;SDS011;27913;42.722;23.268;2023-02-22T00:40:20;4.80;;;1.80;;
42246;SDS011;27913;42.722;23.268;2023-02-22T00:42:48;4.63;;;1.52;;
42246;SDS011;27913;42.722;23.268;2023-02-22T00:45:20;6.65;;;2.10;;
42246;SDS011;27913;42.722;23.268;2023-02-22T00:47:48;5.32;;;1.98;;
42246;SDS011;27913;42.722;23.268;2023-02-22T00:50:14;11.27;;;2.80;;
42246;SDS011;27913;42.722;23.268;2023-02-22T00:52:41;5.82;;;2.10;;
42246;SDS011;27913;42.722;23.268;2023-02-22T00:55:07;6.57;;;2.38;;
42246;SDS011;27913;42.722;23.268;2023-02-22T00:57:34;7.60;;;2.60;;
42246;SDS011;27913;42.722;23.268;2023-02-22T01:00:04;6.65;;;2.35;;
42246;SDS011;27913;42.722;23.268;2023-02-22T01:05:12;8.10;;;2.63;;
42246;SDS011;27913;42.722;23.268;2023-02-22T01:07:38;7.28;;;2.50;;
42246;SDS011;27913;42.722;23.268;2023-02-22T01:10:05;8.27;;;2.45;;
42246;SDS011;27913;42.722;23.268;2023-02-22T01:12:33;7.18;;;2.45;;
42246;SDS011;27913;42.722;23.268;2023-02-22T01:15:00;7.15;;;1.88;;
42246;SDS011;27913;42.722;23.268;2023-02-22T01:17:27;9.98;;;2.53;;
42246;SDS011;27913;42.722;23.268;2023-02-22T01:19:53;6.93;;;1.95;;
42246;SDS011;27913;42.722;23.268;2023-02-22T01:22:19;10.40;;;4.18;;
42246;SDS011;27913;42.722;23.268;2023-02-22T01:24:46;10.18;;;3.50;;
42246;SDS011;27913;42.722;23.268;2023-02-22T01:27:15;9.77;;;3.85;;
42246;SDS011;27913;42.722;23.268;2023-02-22T01:29:42;13.98;;;4.72;;
42246;SDS011;27913;42.722;23.268;2023-02-22T01:32:09;12.60;;;4.45;;
42246;SDS011;27913;42.722;23.268;2023-02-22T01:34:36;9.32;;;4.10;;
42246;SDS011;27913;42.722;23.268;2023-02-22T01:37:02;13.43;;;3.88;;
42246;SDS011;27913;42.722;23.268;2023-02-22T01:39:28;13.07;;;4.63;;
42246;SDS011;27913;42.722;23.268;2023-02-22T01:41:53;12.35;;;4.43;;
42246;SDS011;27913;42.722;23.268;2023-02-22T01:44:28;13.35;;;3.30;;
42246;SDS011;27913;42.722;23.268;2023-02-22T01:46:56;10.48;;;4.00;;
42246;SDS011;27913;42.722;23.268;2023-02-22T01:49:23;8.00;;;3.08;;
42246;SDS011;27913;42.722;23.268;2023-02-22T01:51:54;8.68;;;3.40;;
42246;SDS011;27913;42.722;23.268;2023-02-22T01:54:32;12.02;;;3.42;;
42246;SDS011;27913;42.722;23.268;2023-02-22T01:59:38;11.73;;;3.92;;
42246;SDS011;27913;42.722;23.268;2023-02-22T02:02:07;13.57;;;5.30;;
42246;SDS011;27913;42.722;23.268;2023-02-22T02:04:33;13.48;;;4.30;;
42246;SDS011;27913;42.722;23.268;2023-02-22T02:07:02;12.98;;;4.63;;
42246;SDS011;27913;42.722;23.268;2023-02-22T02:09:38;12.05;;;4.85;;
42246;SDS011;27913;42.722;23.268;2023-02-22T02:12:23;10.30;;;3.95;;
42246;SDS011;27913;42.722;23.268;2023-02-22T02:14:50;13.95;;;4.50;;
42246;SDS011;27913;42.722;23.268;2023-02-22T02:17:18;14.25;;;4.80;;
42246;SDS011;27913;42.722;23.268;2023-02-22T02:34:02;23.00;;;9.05;;
42246;SDS011;27913;42.722;23.268;2023-02-22T02:39:23;24.05;;;8.30;;
42246;SDS011;27913;42.722;23.268;2023-02-22T02:41:53;16.92;;;7.18;;
42246;SDS011;27913;42.722;23.268;2023-02-22T02:44:23;17.50;;;6.80;;
42246;SDS011;27913;42.722;23.268;2023-02-22T02:46:58;20.35;;;8.38;;
42246;SDS011;27913;42.722;23.268;2023-02-22T02:49:36;22.50;;;7.57;;
42246;SDS011;27913;42.722;23.268;2023-02-22T02:52:08;28.75;;;11.93;;
42246;SDS011;27913;42.722;23.268;2023-02-22T02:54:37;24.05;;;9.07;;
42246;SDS011;27913;42.722;23.268;2023-02-22T02:57:03;22.40;;;8.30;;
42246;SDS011;27913;42.722;23.268;2023-02-22T02:59:31;20.88;;;6.97;;
42246;SDS011;27913;42.722;23.268;2023-02-22T03:05:15;18.77;;;6.55;;
42246;SDS011;27913;42.722;23.268;2023-02-22T03:08:44;15.10;;;5.85;;
42246;SDS011;27913;42.722;23.268;2023-02-22T03:11:18;13.32;;;4.88;;
42246;SDS011;27913;42.722;23.268;2023-02-22T03:13:53;9.07;;;3.85;;
42246;SDS011;27913;42.722;23.268;2023-02-22T03:24:26;10.98;;;4.00;;
42246;SDS011;27913;42.722;23.268;2023-02-22T03:29:40;11.30;;;3.40;;
42246;SDS011;27913;42.722;23.268;2023-02-22T03:32:09;10.70;;;3.22;;
42246;SDS011;27913;42.722;23.268;2023-02-22T03:34:41;11.45;;;3.72;;
42246;SDS011;27913;42.722;23.268;2023-02-22T03:37:17;9.98;;;3.60;;
42246;SDS011;27913;42.722;23.268;2023-02-22T03:39:50;8.93;;;3.03;;
42246;SDS011;27913;42.722;23.268;2023-02-22T03:42:27;8.10;;;2.95;;
42246;SDS011;27913;42.722;23.268;2023-02-22T03:44:57;7.63;;;2.72;;
42246;SDS011;27913;42.722;23.268;2023-02-22T03:47:33;9.75;;;3.28;;
42246;SDS011;27913;42.722;23.268;2023-02-22T03:50:07;10.02;;;4.13;;
42246;SDS011;27913;42.722;23.268;2023-02-22T03:55:11;9.80;;;2.70;;
42246;SDS011;27913;42.722;23.268;2023-02-22T03:57:42;7.63;;;2.77;;
42246;SDS011;27913;42.722;23.268;2023-02-22T04:00:13;8.85;;;3.28;;
42246;SDS011;27913;42.722;23.268;2023-02-22T04:02:42;9.80;;;3.20;;
42246;SDS011;27913;42.722;23.268;2023-02-22T04:05:08;8.63;;;2.80;;
42246;SDS011;27913;42.722;23.268;2023-02-22T04:07:34;8.60;;;3.13;;
42246;SDS011;27913;42.722;23.268;2023-02-22T04:09:59;12.95;;;4.15;;
42246;SDS011;27913;42.722;23.268;2023-02-22T04:12:27;10.98;;;5.03;;
42246;SDS011;27913;42.722;23.268;2023-02-22T04:14:52;17.20;;;5.63;;
42246;SDS011;27913;42.722;23.268;2023-02-22T04:17:18;13.75;;;5.30;;
42246;SDS011;27913;42.722;23.268;2023-02-22T04:19:43;24.25;;;10.48;;
42246;SDS011;27913;42.722;23.268;2023-02-22T04:22:09;20.30;;;8.73;;
42246;SDS011;27913;42.722;23.268;2023-02-22T04:24:35;12.57;;;5.65;;
42246;SDS011;27913;42.722;23.268;2023-02-22T04:27:01;8.55;;;3.47;;
42246;SDS011;27913;42.722;23.268;2023-02-22T04:29:27;12.70;;;3.78;;
42246;SDS011;27913;42.722;23.268;2023-02-22T04:31:54;14.77;;;6.45;;
42246;SDS011;27913;42.722;23.268;2023-02-22T04:34:19;12.48;;;5.15;;
42246;SDS011;27913;42.722;23.268;2023-02-22T04:36:45;18.63;;;6.28;;
42246;SDS011;27913;42.722;23.268;2023-02-22T04:39:11;20.63;;;5.95;;
42246;SDS011;27913;42.722;23.268;2023-02-22T04:41:36;15.75;;;6.15;;
42246;SDS011;27913;42.722;23.268;2023-02-22T04:44:02;12.38;;;4.88;;
42246;SDS011;27913;42.722;23.268;2023-02-22T04:46:27;10.68;;;3.50;;
42246;SDS011;27913;42.722;23.268;2023-02-22T04:48:53;12.25;;;3.70;;
42246;SDS011;27913;42.722;23.268;2023-02-22T04:51:19;12.68;;;3.92;;
42246;SDS011;27913;42.722;23.268;2023-02-22T04:53:44;18.83;;;5.45;;
42246;SDS011;27913;42.722;23.268;2023-02-22T04:56:10;12.80;;;5.25;;
42246;SDS011;27913;42.722;23.268;2023-02-22T04:58:35;15.27;;;5.63;;
42246;SDS011;27913;42.722;23.268;2023-02-22T05:01:01;18.42;;;6.63;;
42246;SDS011;27913;42.722;23.268;2023-02-22T05:03:27;16.75;;;6.18;;
42246;SDS011;27913;42.722;23.268;2023-02-22T05:05:52;15.63;;;6.05;;
42246;SDS011;27913;42.722;23.268;2023-02-22T05:08:18;14.38;;;6.32;;
42246;SDS011;27913;42.722;23.268;2023-02-22T05:10:43;23.02;;;8.90;;
42246;SDS011;27913;42.722;23.268;2023-02-22T05:13:09;17.80;;;5.93;;
42246;SDS011;27913;42.722;23.268;2023-02-22T05:15:34;10.00;;;4.85;;
42246;SDS011;27913;42.722;23.268;2023-02-22T05:18:00;12.70;;;4.13;;
42246;SDS011;27913;42.722;23.268;2023-02-22T05:20:27;10.00;;;3.83;;
42246;SDS011;27913;42.722;23.268;2023-02-22T05:22:58;7.85;;;2.95;;
42246;SDS011;27913;42.722;23.268;2023-02-22T05:25:24;11.85;;;3.08;;
42246;SDS011;27913;42.722;23.268;2023-02-22T05:27:55;6.95;;;2.88;;
42246;SDS011;27913;42.722;23.268;2023-02-22T05:30:26;9.13;;;3.95;;
42246;SDS011;27913;42.722;23.268;2023-02-22T05:32:54;8.73;;;3.33;;
42246;SDS011;27913;42.722;23.268;2023-02-22T05:35:20;7.72;;;2.78;;
42246;SDS011;27913;42.722;23.268;2023-02-22T05:37:46;9.57;;;3.30;;
42246;SDS011;27913;42.722;23.268;2023-02-22T05:40:12;8.40;;;2.60;;
42246;SDS011;27913;42.722;23.268;2023-02-22T05:42:39;13.77;;;4.18;;
42246;SDS011;27913;42.722;23.268;2023-02-22T05:45:06;11.77;;;3.75;;
42246;SDS011;27913;42.722;23.268;2023-02-22T05:47:32;10.85;;;3.85;;
42246;SDS011;27913;42.722;23.268;2023-02-22T05:49:57;12.68;;;4.22;;
42246;SDS011;27913;42.722;23.268;2023-02-22T05:52:23;22.77;;;4.47;;
42246;SDS011;27913;42.722;23.268;2023-02-22T05:54:48;14.65;;;4.80;;
42246;SDS011;27913;42.722;23.268;2023-02-22T05:57:14;20.58;;;6.80;;
42246;SDS011;27913;42.722;23.268;2023-02-22T05:59:40;18.13;;;6.93;;
42246;SDS011;27913;42.722;23.268;2023-02-22T06:02:07;20.15;;;6.47;;
42246;SDS011;27913;42.722;23.268;2023-02-22T06:04:32;19.90;;;6.22;;
42246;SDS011;27913;42.722;23.268;2023-02-22T06:06:58;17.40;;;5.57;;
42246;SDS011;27913;42.722;23.268;2023-02-22T06:09:23;23.45;;;6.53;;
42246;SDS011;27913;42.722;23.268;2023-02-22T06:11:49;18.17;;;6.32;;
42246;SDS011;27913;42.722;23.268;2023-02-22T06:14:14;9.23;;;3.90;;
42246;SDS011;27913;42.722;23.268;2023-02-22T06:16:40;18.15;;;5.03;;
42246;SDS011;27913;42.722;23.268;2023-02-22T06:19:05;19.13;;;5.18;;
42246;SDS011;27913;42.722;23.268;2023-02-22T06:21:31;9.80;;;4.10;;
42246;SDS011;27913;42.722;23.268;2023-02-22T06:23:56;12.60;;;5.38;;
42246;SDS011;27913;42.722;23.268;2023-02-22T06:26:21;11.20;;;4.25;;
42246;SDS011;27913;42.722;23.268;2023-02-22T06:28:47;13.52;;;4.82;;
42246;SDS011;27913;42.722;23.268;2023-02-22T06:31:13;11.30;;;3.95;;
42246;SDS011;27913;42.722;23.268;2023-02-22T06:33:39;9.05;;;3.97;;
42246;SDS011;27913;42.722;23.268;2023-02-22T06:36:04;13.73;;;4.90;;
42246;SDS011;27913;42.722;23.268;2023-02-22T06:38:30;23.60;;;7.10;;
42246;SDS011;27913;42.722;23.268;2023-02-22T06:40:56;23.63;;;8.88;;
42246;SDS011;27913;42.722;23.268;2023-02-22T06:43:21;34.60;;;12.35;;
42246;SDS011;27913;42.722;23.268;2023-02-22T06:45:48;31.70;;;12.73;;
42246;SDS011;27913;42.722;23.268;2023-02-22T06:48:14;29.70;;;11.85;;
42246;SDS011;27913;42.722;23.268;2023-02-22T06:50:40;24.08;;;8.43;;
42246;SDS011;27913;42.722;23.268;2023-02-22T06:53:05;21.27;;;7.82;;
42246;SDS011;27913;42.722;23.268;2023-02-22T06:55:31;18.48;;;6.40;;
42246;SDS011;27913;42.722;23.268;2023-02-22T06:57:59;15.52;;;5.90;;
42246;SDS011;27913;42.722;23.268;2023-02-22T07:00:25;15.85;;;5.57;;
42246;SDS011;27913;42.722;23.268;2023-02-22T07:02:52;21.77;;;6.57;;
42246;SDS011;27913;42.722;23.268;2023-02-22T07:05:19;14.82;;;5.45;;
42246;SDS011;27913;42.722;23.268;2023-02-22T07:07:46;24.15;;;9.63;;
42246;SDS011;27913;42.722;23.268;2023-02-22T07:10:31;26.95;;;10.05;;
42246;SDS011;27913;42.722;23.268;2023-02-22T07:12:58;22.23;;;7.20;;
42246;SDS011;27913;42.722;23.268;2023-02-22T07:15:25;19.08;;;6.40;;
42246;SDS011;27913;42.722;23.268;2023-02-22T07:17:52;20.58;;;6.45;;
42246;SDS011;27913;42.722;23.268;2023-02-22T07:20:18;16.77;;;6.57;;
42246;SDS011;27913;42.722;23.268;2023-02-22T07:22:44;16.52;;;6.78;;
42246;SDS011;27913;42.722;23.268;2023-02-22T07:25:10;16.15;;;6.30;;
42246;SDS011;27913;42.722;23.268;2023-02-22T07:27:36;16.67;;;6.45;;
42246;SDS011;27913;42.722;23.268;2023-02-22T07:30:03;13.98;;;5.63;;
42246;SDS011;27913;42.722;23.268;2023-02-22T07:32:30;15.82;;;6.28;;
42246;SDS011;27913;42.722;23.268;2023-02-22T07:34:56;16.08;;;5.85;;
42246;SDS011;27913;42.722;23.268;2023-02-22T07:37:21;17.58;;;5.55;;
42246;SDS011;27913;42.722;23.268;2023-02-22T07:39:46;14.80;;;4.55;;
42246;SDS011;27913;42.722;23.268;2023-02-22T07:42:12;14.63;;;6.07;;
42246;SDS011;27913;42.722;23.268;2023-02-22T07:44:37;12.05;;;4.75;;
42246;SDS011;27913;42.722;23.268;2023-02-22T07:47:03;12.60;;;4.85;;
42246;SDS011;27913;42.722;23.268;2023-02-22T07:49:28;12.80;;;4.57;;
42246;SDS011;27913;42.722;23.268;2023-02-22T07:51:54;14.15;;;5.22;;
42246;SDS011;27913;42.722;23.268;2023-02-22T07:54:19;9.65;;;4.20;;
42246;SDS011;27913;42.722;23.268;2023-02-22T07:56:48;12.20;;;3.88;;
42246;SDS011;27913;42.722;23.268;2023-02-22T07:59:14;18.60;;;6.32;;
42246;SDS011;27913;42.722;23.268;2023-02-22T08:01:40;36.58;;;8.20;;
42246;SDS011;27913;42.722;23.268;2023-02-22T08:04:06;18.17;;;6.60;;
42246;SDS011;27913;42.722;23.268;2023-02-22T08:06:31;16.98;;;6.07;;
42246;SDS011;27913;42.722;23.268;2023-02-22T08:08:57;13.27;;;5.80;;
42246;SDS011;27913;42.722;23.268;2023-02-22T08:11:23;12.32;;;5.63;;
42246;SDS011;27913;42.722;23.268;2023-02-22T08:13:49;21.35;;;7.63;;
42246;SDS011;27913;42.722;23.268;2023-02-22T08:16:15;20.73;;;6.47;;
42246;SDS011;27913;42.722;23.268;2023-02-22T08:18:41;24.30;;;6.75;;
42246;SDS011;27913;42.722;23.268;2023-02-22T08:21:07;18.95;;;8.07;;
42246;SDS011;27913;42.722;23.268;2023-02-22T08:23:32;19.75;;;7.53;;
42246;SDS011;27913;42.722;23.268;2023-02-22T08:26:05;20.60;;;8.40;;
42246;SDS011;27913;42.722;23.268;2023-02-22T08:28:33;16.38;;;6.78;;
42246;SDS011;27913;42.722;23.268;2023-02-22T08:30:59;20.23;;;7.18;;
42246;SDS011;27913;42.722;23.268;2023-02-22T08:33:24;26.60;;;9.82;;
42246;SDS011;27913;42.722;23.268;2023-02-22T08:35:50;27.15;;;8.68;;
42246;SDS011;27913;42.722;23.268;2023-02-22T08:38:21;13.85;;;6.30;;
42246;SDS011;27913;42.722;23.268;2023-02-22T08:40:49;21.17;;;6.78;;
42246;SDS011;27913;42.722;23.268;2023-02-22T08:43:15;26.40;;;8.27;;
42246;SDS011;27913;42.722;23.268;2023-02-22T08:45:42;15.13;;;6.45;;
42246;SDS011;27913;42.722;23.268;2023-02-22T08:48:09;15.32;;;6.25;;
42246;SDS011;27913;42.722;23.268;2023-02-22T08:50:35;17.23;;;6.72;;
42246;SDS011;27913;42.722;23.268;2023-02-22T08:53:01;16.63;;;7.03;;
42246;SDS011;27913;42.722;23.268;2023-02-22T08:55:29;16.30;;;6.22;;
42246;SDS011;27913;42.722;23.268;2023-02-22T08:57:58;13.63;;;5.47;;
42246;SDS011;27913;42.722;23.268;2023-02-22T09:00:25;18.77;;;5.60;;
42246;SDS011;27913;42.722;23.268;2023-02-22T09:02:53;12.98;;;5.38;;
42246;SDS011;27913;42.722;23.268;2023-02-22T09:05:19;11.57;;;4.38;;
42246;SDS011;27913;42.722;23.268;2023-02-22T09:07:44;9.90;;;3.65;;
42246;SDS011;27913;42.722;23.268;2023-02-22T09:10:10;14.98;;;4.00;;
42246;SDS011;27913;42.722;23.268;2023-02-22T09:12:39;12.25;;;4.18;;
42246;SDS011;27913;42.722;23.268;2023-02-22T09:15:05;11.93;;;3.42;;
42246;SDS011;27913;42.722;23.268;2023-02-22T09:17:31;13.45;;;3.38;;
42246;SDS011;27913;42.722;23.268;2023-02-22T09:19:56;9.75;;;3.70;;
42246;SDS011;27913;42.722;23.268;2023-02-22T09:22:22;9.98;;;3.30;;
42246;SDS011;27913;42.722;23.268;2023-02-22T09:24:48;7.38;;;2.83;;
42246;SDS011;27913;42.722;23.268;2023-02-22T09:27:15;5.13;;;1.90;;
42246;SDS011;27913;42.722;23.268;2023-02-22T09:29:41;9.23;;;2.45;;
42246;SDS011;27913;42.722;23.268;2023-02-22T09:32:06;9.68;;;2.75;;
42246;SDS011;27913;42.722;23.268;2023-02-22T09:34:32;7.20;;;1.88;;
42246;SDS011;27913;42.722;23.268;2023-02-22T09:36:59;7.63;;;2.72;;
42246;SDS011;27913;42.722;23.268;2023-02-22T09:39:25;5.25;;;1.90;;
42246;SDS011;27913;42.722;23.268;2023-02-22T09:42:25;7.43;;;2.38;;
42246;SDS011;27913;42.722;23.268;2023-02-22T09:45:05;7.40;;;2.20;;
42246;SDS011;27913;42.722;23.268;2023-02-22T09:47:39;6.20;;;1.98;;
42246;SDS011;27913;42.722;23.268;2023-02-22T09:50:25;4.55;;;1.20;;
42246;SDS011;27913;42.722;23.268;2023-02-22T09:53:04;4.47;;;1.77;;
42246;SDS011;27913;42.722;23.268;2023-02-22T09:55:39;5.82;;;1.75;;
42246;SDS011;27913;42.722;23.268;2023-02-22T09:58:24;6.97;;;2.67;;
42246;SDS011;27913;42.722;23.268;2023-02-22T10:04:04;8.02;;;2.08;;
42246;SDS011;27913;42.722;23.268;2023-02-22T10:06:55;6.22;;;1.58;;
42246;SDS011;27913;42.722;23.268;2023-02-22T10:09:30;5.55;;;1.60;;
42246;SDS011;27913;42.722;23.268;2023-02-22T10:12:00;4.93;;;1.95;;
42246;SDS011;27913;42.722;23.268;2023-02-22T10:14:39;8.95;;;1.88;;
42246;SDS011;27913;42.722;23.268;2023-02-22T10:17:14;7.22;;;2.10;;
42246;SDS011;27913;42.722;23.268;2023-02-22T10:20:11;6.15;;;1.73;;
42246;SDS011;27913;42.722;23.268;2023-02-22T10:25:25;5.20;;;1.70;;
42246;SDS011;27913;42.722;23.268;2023-02-22T10:27:58;6.70;;;1.85;;
42246;SDS011;27913;42.722;23.268;2023-02-22T10:30:34;6.45;;;1.42;;
42246;SDS011;27913;42.722;23.268;2023-02-22T10:33:07;5.55;;;1.67;;
42246;SDS011;27913;42.722;23.268;2023-02-22T10:35:39;5.38;;;2.15;;
42246;SDS011;27913;42.722;23.268;2023-02-22T10:38:23;5.97;;;1.90;;
42246;SDS011;27913;42.722;23.268;2023-02-22T10:40:56;6.57;;;1.48;;
42246;SDS011;27913;42.722;23.268;2023-02-22T10:43:32;6.07;;;1.60;;
42246;SDS011;27913;42.722;23.268;2023-02-22T10:46:01;6.28;;;1.75;;
42246;SDS011;27913;42.722;23.268;2023-02-22T10:48:30;2.30;;;0.77;;
42246;SDS011;27913;42.722;23.268;2023-02-22T10:51:04;9.10;;;1.45;;
42246;SDS011;27913;42.722;23.268;2023-02-22T10:53:34;6.07;;;1.80;;
42246;SDS011;27913;42.722;23.268;2023-02-22T11:03:58;7.20;;;2.13;;
42246;SDS011;27913;42.722;23.268;2023-02-22T11:06:33;4.25;;;1.52;;
42246;SDS011;27913;42.722;23.268;2023-02-22T11:11:37;3.35;;;1.20;;
42246;SDS011;27913;42.722;23.268;2023-02-22T11:14:05;3.15;;;1.20;;
42246;SDS011;27913;42.722;23.268;2023-02-22T11:16:39;1.85;;;0.52;;
42246;SDS011;27913;42.722;23.268;2023-02-22T11:21:54;4.10;;;1.27;;
42246;SDS011;27913;42.722;23.268;2023-02-22T11:24:22;2.97;;;0.90;;
42246;SDS011;27913;42.722;23.268;2023-02-22T11:26:54;5.18;;;1.23;;
42246;SDS011;27913;42.722;23.268;2023-02-22T11:32:15;3.90;;;1.55;;
42246;SDS011;27913;42.722;23.268;2023-02-22T11:34:45;4.03;;;1.25;;
42246;SDS011;27913;42.722;23.268;2023-02-22T11:37:16;1.60;;;0.65;;
42246;SDS011;27913;42.722;23.268;2023-02-22T11:39:43;2.97;;;1.35;;
42246;SDS011;27913;42.722;23.268;2023-02-22T11:42:26;4.65;;;1.50;;
42246;SDS011;27913;42.722;23.268;2023-02-22T11:47:35;2.83;;;1.05;;
42246;SDS011;27913;42.722;23.268;2023-02-22T11:50:25;5.20;;;1.13;;
42246;SDS011;27913;42.722;23.268;2023-02-22T11:53:13;3.80;;;0.73;;
42246;SDS011;27913;42.722;23.268;2023-02-22T11:58:55;2.63;;;0.80;;
42246;SDS011;27913;42.722;23.268;2023-02-22T12:01:50;2.13;;;0.82;;
42246;SDS011;27913;42.722;23.268;2023-02-22T12:09:45;4.63;;;1.00;;
42246;SDS011;27913;42.722;23.268;2023-02-22T12:20:14;5.22;;;0.90;;
42246;SDS011;27913;42.722;23.268;2023-02-22T12:22:51;4.53;;;0.90;;
42246;SDS011;27913;42.722;23.268;2023-02-22T12:25:46;2.90;;;0.70;;
42246;SDS011;27913;42.722;23.268;2023-02-22T12:28:36;3.10;;;0.85;;
42246;SDS011;27913;42.722;23.268;2023-02-22T12:36:30;4.93;;;1.23;;
42246;SDS011;27913;42.722;23.268;2023-02-22T12:39:02;5.00;;;1.10;;
42246;SDS011;27913;42.722;23.268;2023-02-22T12:41:39;2.15;;;0.95;;
42246;SDS011;27913;42.722;23.268;2023-02-22T12:44:17;3.20;;;1.20;;
42246;SDS011;27913;42.722;23.268;2023-02-22T12:46:47;4.60;;;1.52;;
42246;SDS011;27913;42.722;23.268;2023-02-22T12:54:54;7.22;;;2.08;;
42246;SDS011;27913;42.722;23.268;2023-02-22T13:03:32;3.28;;;0.88;;
42246;SDS011;27913;42.722;23.268;2023-02-22T13:06:12;5.05;;;1.10;;
42246;SDS011;27913;42.722;23.268;2023-02-22T13:14:23;1.58;;;0.55;;
42246;SDS011;27913;42.722;23.268;2023-02-22T13:16:52;4.18;;;1.20;;
42246;SDS011;27913;42.722;23.268;2023-02-22T13:22:15;2.45;;;0.88;;
42246;SDS011;27913;42.722;23.268;2023-02-22T13:27:25;4.75;;;1.35;;
42246;SDS011;27913;42.722;23.268;2023-02-22T13:29:58;1.83;;;0.73;;
42246;SDS011;27913;42.722;23.268;2023-02-22T13:35:09;3.50;;;1.30;;
42246;SDS011;27913;42.722;23.268;2023-02-22T13:37:51;2.80;;;1.30;;
42246;SDS011;27913;42.722;23.268;2023-02-22T13:56:12;3.45;;;1.27;;
42246;SDS011;27913;42.722;23.268;2023-02-22T13:58:49;2.13;;;0.88;;
42246;SDS011;27913;42.722;23.268;2023-02-22T14:04:31;3.67;;;1.20;;
42246;SDS011;27913;42.722;23.268;2023-02-22T14:17:32;2.90;;;0.90;;
42246;SDS011;27913;42.722;23.268;2023-02-22T14:19:59;2.92;;;1.30;;
42246;SDS011;27913;42.722;23.268;2023-02-22T14:22:39;5.65;;;1.80;;
42246;SDS011;27913;42.722;23.268;2023-02-22T14:25:13;4.18;;;1.77;;
42246;SDS011;27913;42.722;23.268;2023-02-22T14:28:01;5.88;;;1.92;;
42246;SDS011;27913;42.722;23.268;2023-02-22T14:30:29;1.70;;;0.77;;
42246;SDS011;27913;42.722;23.268;2023-02-22T14:32:57;3.22;;;1.20;;
42246;SDS011;27913;42.722;23.268;2023-02-22T14:35:24;2.40;;;1.17;;
42246;SDS011;27913;42.722;23.268;2023-02-22T14:38:01;1.92;;;0.90;;
42246;SDS011;27913;42.722;23.268;2023-02-22T14:40:31;4.75;;;1.27;;
42246;SDS011;27913;42.722;23.268;2023-02-22T14:43:18;3.63;;;1.35;;
42246;SDS011;27913;42.722;23.268;2023-02-22T14:45:55;4.35;;;1.35;;
42246;SDS011;27913;42.722;23.268;2023-02-22T14:51:06;1.50;;;1.02;;
42246;SDS011;27913;42.722;23.268;2023-02-22T14:53:48;3.90;;;1.63;;
42246;SDS011;27913;42.722;23.268;2023-02-22T14:59:36;2.95;;;1.20;;
42246;SDS011;27913;42.722;23.268;2023-02-22T15:02:13;3.90;;;1.63;;
42246;SDS011;27913;42.722;23.268;2023-02-22T15:04:39;5.35;;;2.05;;
42246;SDS011;27913;42.722;23.268;2023-02-22T15:07:29;1.67;;;0.82;;
42246;SDS011;27913;42.722;23.268;2023-02-22T15:12:52;5.65;;;2.20;;
42246;SDS011;27913;42.722;23.268;2023-02-22T15:15:33;1.27;;;0.63;;
42246;SDS011;27913;42.722;23.268;2023-02-22T15:18:02;2.50;;;1.27;;
42246;SDS011;27913;42.722;23.268;2023-02-22T15:20:31;3.05;;;1.50;;
42246;SDS011;27913;42.722;23.268;2023-02-22T15:23:00;3.30;;;1.35;;
42246;SDS011;27913;42.722;23.268;2023-02-22T15:25:26;4.65;;;1.92;;
42246;SDS011;27913;42.722;23.268;2023-02-22T15:27:54;7.97;;;2.03;;
42246;SDS011;27913;42.722;23.268;2023-02-22T15:30:27;7.65;;;2.58;;
42246;SDS011;27913;42.722;23.268;2023-02-22T15:32:54;6.70;;;2.40;;
42246;SDS011;27913;42.722;23.268;2023-02-22T15:35:24;6.70;;;2.75;;
42246;SDS011;27913;42.722;23.268;2023-02-22T15:40:25;6.18;;;2.58;;
42246;SDS011;27913;42.722;23.268;2023-02-22T15:42:57;5.88;;;2.45;;
42246;SDS011;27913;42.722;23.268;2023-02-22T15:45:24;7.75;;;2.45;;
42246;SDS011;27913;42.722;23.268;2023-02-22T15:47:52;7.82;;;2.95;;
42246;SDS011;27913;42.722;23.268;2023-02-22T15:50:32;4.88;;;2.53;;
42246;SDS011;27913;42.722;23.268;2023-02-22T15:52:59;8.50;;;2.85;;
42246;SDS011;27913;42.722;23.268;2023-02-22T15:55:28;5.68;;;2.60;;
42246;SDS011;27913;42.722;23.268;2023-02-22T15:57:58;5.35;;;2.28;;
42246;SDS011;27913;42.722;23.268;2023-02-22T16:00:27;6.28;;;2.55;;
42246;SDS011;27913;42.722;23.268;2023-02-22T16:03:17;5.70;;;2.33;;
42246;SDS011;27913;42.722;23.268;2023-02-22T16:05:49;5.55;;;2.60;;
42246;SDS011;27913;42.722;23.268;2023-02-22T16:08:17;5.85;;;2.67;;
42246;SDS011;27913;42.722;23.268;2023-02-22T16:11:29;8.63;;;2.20;;
42246;SDS011;27913;42.722;23.268;2023-02-22T16:13:40;7.82;;;2.45;;
42246;SDS011;27913;42.722;23.268;2023-02-22T16:18:41;6.95;;;2.80;;
42246;SDS011;27913;42.722;23.268;2023-02-22T16:21:08;13.70;;;4.75;;
42246;SDS011;27913;42.722;23.268;2023-02-22T16:26:29;15.15;;;5.65;;
42246;SDS011;27913;42.722;23.268;2023-02-22T16:29:00;11.82;;;4.60;;
42246;SDS011;27913;42.722;23.268;2023-02-22T16:31:31;11.10;;;4.07;;
42246;SDS011;27913;42.722;23.268;2023-02-22T16:34:00;10.88;;;4.38;;
42246;SDS011;27913;42.722;23.268;2023-02-22T16:36:36;10.30;;;4.05;;
42246;SDS011;27913;42.722;23.268;2023-02-22T16:41:47;6.70;;;2.40;;
42246;SDS011;27913;42.722;23.268;2023-02-22T16:44:12;14.07;;;2.90;;
42246;SDS011;27913;42.722;23.268;2023-02-22T16:46:39;6.72;;;3.00;;
42246;SDS011;27913;42.722;23.268;2023-02-22T16:49:06;6.32;;;2.45;;
42246;SDS011;27913;42.722;23.268;2023-02-22T16:51:37;7.40;;;2.42;;
42246;SDS011;27913;42.722;23.268;2023-02-22T16:54:08;7.75;;;3.05;;
42246;SDS011;27913;42.722;23.268;2023-02-22T16:56:37;8.82;;;3.05;;
42246;SDS011;27913;42.722;23.268;2023-02-22T16:59:07;11.23;;;3.50;;
42246;SDS011;27913;42.722;23.268;2023-02-22T17:01:36;9.15;;;3.20;;
42246;SDS011;27913;42.722;23.268;2023-02-22T17:04:01;10.68;;;3.45;;
42246;SDS011;27913;42.722;23.268;2023-02-22T17:06:27;9.93;;;3.70;;
42246;SDS011;27913;42.722;23.268;2023-02-22T17:08:53;11.07;;;4.13;;
42246;SDS011;27913;42.722;23.268;2023-02-22T17:11:18;13.10;;;3.80;;
42246;SDS011;27913;42.722;23.268;2023-02-22T17:13:45;12.32;;;4.05;;
42246;SDS011;27913;42.722;23.268;2023-02-22T17:16:15;10.00;;;4.00;;
42246;SDS011;27913;42.722;23.268;2023-02-22T17:18:41;12.55;;;4.57;;
42246;SDS011;27913;42.722;23.268;2023-02-22T17:21:08;13.88;;;4.45;;
42246;SDS011;27913;42.722;23.268;2023-02-22T17:23:34;12.90;;;4.70;;